Terminal Aerodrome Forecast
Issued by NWS

Home | Current Version | Previous Version | Text Only | Print | Product List | Glossary On
Versions: 1 2 3 4 5 6 7 8 9 10 11 12 13 14 15 16 17 18 19 20
000
FTUS42 KILM 261737
TAFCRE
TAF
KCRE 261737Z 2618/2718 01010G16KT P6SM VCSH BKN014 BKN040
     FM270000 02006KT 6SM BR VCSH BKN006
     FM270900 02005KT P6SM SCT008 BKN250
     FM271400 36007KT P6SM SCT250=

USA.gov is the U.S. government's official web portal to all federal, state and local government web resources and services.